OLD79TX weather

CLOSED Ag-Air Inc. Airport
Brownsville, Texas, United States

Public forecast

Using degrees Fahrenheit for public forecast. Weather courtesy of forecast.io.

Closest aviation weather report (METAR) to Ag-Air Inc. Airport

Closest report is Valley International Airport, 11.3 nm (20.9 km) NW. Retrieved 2019/10/21 07:52 UTC (43 minutes ago):

KHRL 210752Z AUTO 15015KT 9SM RA FEW080 SCT110 23/23 A2970 RMK AO2 PK WND 17031/0657 SLP058 P0030 T02330228 TSNO

Closest aviation forecast (TAF) to Ag-Air Inc. Airport

Closest forecast is Valley International Airport, 11.3 nm (20.9 km) NW. Retrieved 2019/10/21 06:39 UTC (2 hours ago):

TAF KHRL 210537Z 2106/2206 15010KT P6SM -SHRA VCTS SCT015 OVC030CB TEMPO 2106/2110 VRB25G40KT 2SM TSRA BKN020CB FM211200 17009KT P6SM VCSH SCT015 OVC050 FM212000 31010KT P6SM BKN050 FM212300 36012KT P6SM FEW250